Time;durP1;ratioP1;P1;durP2;ratioP2;P2;SDS_P1;SDS_P2;PMS_P1;PMS_P2;Temp;Humidity;BMP_temperature;BMP_pressure;BME280_temperature;BME280_humidity;BME280_pressure;Samples;Min_cycle;Max_cycle;Signal;HPM_P1;HPM_P2
2023/06/30 00:02:19;;;;;;;15.18;9.15;;;;;;;;;;5072398;28;20024;-53
2023/06/30 00:04:47;;;;;;;17.77;9.60;;;;;;;;;;5072115;28;20048;-52
2023/06/30 00:07:13;;;;;;;18.35;10.32;;;;;;;;;;5071858;28;20031;-55
2023/06/30 00:09:39;;;;;;;15.95;9.68;;;;;;;;;;5072439;28;20036;-54
2023/06/30 00:12:05;;;;;;;16.13;9.55;;;;;;;;;;5072308;28;20021;-48
2023/06/30 00:14:31;;;;;;;16.65;9.88;;;;;;;;;;5072017;28;20613;-56
2023/06/30 00:16:57;;;;;;;14.95;9.20;;;;;;;;;;5054218;28;20042;-52
2023/06/30 00:19:25;;;;;;;15.20;9.30;;;;;;;;;;5072034;28;20026;-50
2023/06/30 00:21:52;;;;;;;16.08;9.40;;;;;;;;;;5071952;28;20446;-50
2023/06/30 00:24:18;;;;;;;16.38;9.25;;;;;;;;;;5071826;28;20021;-53
2023/06/30 00:26:45;;;;;;;16.42;9.32;;;;;;;;;;5071834;28;20029;-49
2023/06/30 00:29:11;;;;;;;16.90;9.05;;;;;;;;;;5069838;28;20036;-49
2023/06/30 00:31:37;;;;;;;16.45;9.68;;;;;;;;;;5071608;28;20024;-56
2023/06/30 00:34:03;;;;;;;18.17;10.18;;;;;;;;;;5071760;28;20022;-52
2023/06/30 00:36:29;;;;;;;16.88;8.60;;;;;;;;;;5071885;28;20476;-52
2023/06/30 00:38:55;;;;;;;17.17;9.60;;;;;;;;;;5071665;28;20480;-56
2023/06/30 00:41:22;;;;;;;15.32;8.80;;;;;;;;;;5071718;28;20103;-54
2023/06/30 00:43:48;;;;;;;15.38;8.85;;;;;;;;;;5071729;28;20029;-54
2023/06/30 00:46:16;;;;;;;15.98;9.18;;;;;;;;;;5071554;28;20024;-49
2023/06/30 00:48:42;;;;;;;16.30;8.95;;;;;;;;;;5071701;28;20450;-49
2023/06/30 00:51:08;;;;;;;15.52;8.55;;;;;;;;;;5071656;28;20496;-50
2023/06/30 00:53:34;;;;;;;14.98;8.98;;;;;;;;;;5071707;28;20024;-50
2023/06/30 00:56:00;;;;;;;15.88;9.18;;;;;;;;;;5071513;28;20025;-49
2023/06/30 00:58:26;;;;;;;16.85;9.40;;;;;;;;;;5071598;28;20039;-49
2023/06/30 01:00:54;;;;;;;16.98;9.13;;;;;;;;;;5071618;28;20031;-54
2023/06/30 01:03:27;;;;;;;16.45;8.75;;;;;;;;;;5071606;28;20094;-52
2023/06/30 01:05:53;;;;;;;15.48;8.68;;;;;;;;;;5071331;28;20029;-49
2023/06/30 01:08:25;;;;;;;16.05;8.98;;;;;;;;;;5090559;28;20036;-55
2023/06/30 01:10:53;;;;;;;16.73;8.80;;;;;;;;;;5074491;28;20016;-53
2023/06/30 01:13:19;;;;;;;15.52;8.88;;;;;;;;;;5092650;28;20410;-54
2023/06/30 01:15:45;;;;;;;15.60;8.88;;;;;;;;;;5092375;28;20040;-57
2023/06/30 01:18:11;;;;;;;17.10;8.90;;;;;;;;;;5093357;28;20026;-52
2023/06/30 01:20:40;;;;;;;15.65;8.30;;;;;;;;;;5096023;28;20515;-48
2023/06/30 01:23:12;;;;;;;17.00;9.02;;;;;;;;;;5096366;28;20038;-51
2023/06/30 01:25:38;;;;;;;15.38;8.15;;;;;;;;;;5077314;28;20480;-54
2023/06/30 01:28:05;;;;;;;19.17;8.80;;;;;;;;;;5087183;28;20024;-57
2023/06/30 01:30:31;;;;;;;15.50;8.90;;;;;;;;;;5087815;28;20511;-53
2023/06/30 01:32:58;;;;;;;17.27;9.70;;;;;;;;;;5096713;28;20047;-55
2023/06/30 01:35:24;;;;;;;16.83;11.80;;;;;;;;;;5095949;28;20031;-52
2023/06/30 01:37:50;;;;;;;18.27;15.77;;;;;;;;;;5087819;28;20020;-49
2023/06/30 01:40:16;;;;;;;22.48;20.27;;;;;;;;;;5096339;28;20027;-52
2023/06/30 01:42:43;;;;;;;28.15;25.38;;;;;;;;;;5095457;28;20020;-49
2023/06/30 01:45:10;;;;;;;27.38;24.88;;;;;;;;;;5077117;28;20020;-50
2023/06/30 01:47:36;;;;;;;27.85;25.38;;;;;;;;;;5094479;28;20026;-49
2023/06/30 01:50:02;;;;;;;29.38;26.70;;;;;;;;;;5095034;28;20371;-51
2023/06/30 01:52:28;;;;;;;29.15;26.55;;;;;;;;;;5094941;28;20468;-49
2023/06/30 01:54:54;;;;;;;32.00;29.38;;;;;;;;;;5094658;28;20024;-50
2023/06/30 01:57:20;;;;;;;33.45;29.73;;;;;;;;;;5094880;28;20383;-53
2023/06/30 01:59:46;;;;;;;33.20;30.25;;;;;;;;;;5095278;28;20016;-58
2023/06/30 02:02:12;;;;;;;33.90;30.98;;;;;;;;;;5095360;28;20438;-51
2023/06/30 02:04:38;;;;;;;33.20;30.45;;;;;;;;;;5094712;28;20423;-54
2023/06/30 02:07:04;;;;;;;33.85;31.08;;;;;;;;;;5095158;28;20038;-53
2023/06/30 02:09:30;;;;;;;34.47;31.67;;;;;;;;;;5095046;28;20028;-55
2023/06/30 02:11:56;;;;;;;35.13;32.08;;;;;;;;;;5094789;28;20413;-55
2023/06/30 02:14:23;;;;;;;34.33;31.73;;;;;;;;;;5094470;28;20121;-55
2023/06/30 02:16:49;;;;;;;35.63;32.58;;;;;;;;;;5094694;28;20053;-52
2023/06/30 02:19:15;;;;;;;32.50;29.90;;;;;;;;;;5094581;28;20044;-53
2023/06/30 02:21:41;;;;;;;32.00;29.15;;;;;;;;;;5094347;28;20485;-55
2023/06/30 02:24:08;;;;;;;31.00;28.48;;;;;;;;;;5094490;28;20039;-53
2023/06/30 02:26:34;;;;;;;30.45;27.83;;;;;;;;;;5094133;28;20031;-53
2023/06/30 02:29:00;;;;;;;28.90;25.73;;;;;;;;;;5093919;28;20027;-50
2023/06/30 02:31:26;;;;;;;28.83;26.20;;;;;;;;;;5094419;28;20028;-51
2023/06/30 02:33:53;;;;;;;31.25;28.23;;;;;;;;;;5096671;28;20023;-54
2023/06/30 02:36:19;;;;;;;30.58;27.60;;;;;;;;;;5096528;28;20020;-54
2023/06/30 02:38:45;;;;;;;29.83;26.92;;;;;;;;;;5094535;28;20028;-50
2023/06/30 02:41:11;;;;;;;29.92;27.25;;;;;;;;;;5094968;28;20024;-55
2023/06/30 02:43:37;;;;;;;29.58;26.80;;;;;;;;;;5095322;28;20020;-54
2023/06/30 02:46:03;;;;;;;29.38;26.42;;;;;;;;;;5095441;28;20042;-57
2023/06/30 02:48:29;;;;;;;30.25;27.10;;;;;;;;;;5095259;28;20062;-53
2023/06/30 02:50:55;;;;;;;29.60;26.73;;;;;;;;;;5094784;28;20036;-55
2023/06/30 02:53:21;;;;;;;29.52;26.83;;;;;;;;;;5095701;28;20493;-52
2023/06/30 02:55:47;;;;;;;30.27;27.48;;;;;;;;;;5095114;28;20107;-57
2023/06/30 02:58:13;;;;;;;30.58;27.45;;;;;;;;;;5094938;28;20024;-57
2023/06/30 03:00:39;;;;;;;29.92;27.13;;;;;;;;;;5077100;28;20021;-56
2023/06/30 03:03:05;;;;;;;29.75;26.95;;;;;;;;;;5095114;28;20020;-52
2023/06/30 03:05:34;;;;;;;30.48;27.40;;;;;;;;;;5094924;28;20085;-56
2023/06/30 03:08:00;;;;;;;30.65;27.83;;;;;;;;;;5094975;28;20024;-59
2023/06/30 03:10:26;;;;;;;29.05;26.08;;;;;;;;;;5096755;28;20081;-55
2023/06/30 03:12:52;;;;;;;28.90;26.20;;;;;;;;;;5082780;28;20024;-54
2023/06/30 03:15:18;;;;;;;29.67;26.63;;;;;;;;;;5098216;28;20043;-53
2023/06/30 03:17:44;;;;;;;29.38;25.52;;;;;;;;;;5096132;28;20016;-51
2023/06/30 03:20:11;;;;;;;29.98;25.77;;;;;;;;;;5077315;28;20016;-55
2023/06/30 03:22:37;;;;;;;29.48;25.20;;;;;;;;;;5093948;28;20479;-52
2023/06/30 03:25:04;;;;;;;27.33;24.42;;;;;;;;;;5093632;28;20141;-52
2023/06/30 03:27:31;;;;;;;29.70;26.60;;;;;;;;;;5093796;28;20032;-51
2023/06/30 03:29:57;;;;;;;28.30;25.30;;;;;;;;;;5094049;28;20545;-50
2023/06/30 03:32:23;;;;;;;26.90;24.15;;;;;;;;;;5094001;28;20028;-49
2023/06/30 03:34:49;;;;;;;28.02;25.20;;;;;;;;;;5093799;28;20020;-53
2023/06/30 03:37:15;;;;;;;27.45;24.55;;;;;;;;;;5093661;28;20101;-54
2023/06/30 03:39:41;;;;;;;27.33;24.38;;;;;;;;;;5074543;28;20064;-50
2023/06/30 03:42:07;;;;;;;28.20;25.17;;;;;;;;;;5092045;28;20028;-50
2023/06/30 03:44:33;;;;;;;26.50;23.75;;;;;;;;;;5092841;28;20035;-51
2023/06/30 03:46:59;;;;;;;27.70;22.92;;;;;;;;;;5092934;28;20024;-50
2023/06/30 03:49:25;;;;;;;25.40;22.30;;;;;;;;;;5092722;28;20024;-51
2023/06/30 03:51:51;;;;;;;25.63;23.02;;;;;;;;;;5092875;28;20024;-50
2023/06/30 03:54:17;;;;;;;25.58;22.85;;;;;;;;;;5092900;28;20380;-48
2023/06/30 03:56:43;;;;;;;25.42;22.73;;;;;;;;;;5092828;28;20063;-52
2023/06/30 03:59:09;;;;;;;29.90;23.27;;;;;;;;;;5092758;28;20020;-54
2023/06/30 04:01:36;;;;;;;30.17;23.48;;;;;;;;;;5092841;28;20053;-50
2023/06/30 04:04:02;;;;;;;25.63;22.92;;;;;;;;;;5092509;28;20125;-52
2023/06/30 04:06:28;;;;;;;27.60;22.98;;;;;;;;;;5092474;28;20036;-53
2023/06/30 04:08:54;;;;;;;27.77;22.63;;;;;;;;;;5092538;28;20027;-56
2023/06/30 04:11:20;;;;;;;26.88;22.75;;;;;;;;;;5094353;28;20024;-56
2023/06/30 04:13:47;;;;;;;26.52;21.60;;;;;;;;;;5093655;28;20020;-52
2023/06/30 04:16:13;;;;;;;24.52;21.98;;;;;;;;;;5092484;28;20422;-50
2023/06/30 04:18:39;;;;;;;25.42;22.73;;;;;;;;;;5074071;28;20115;-51
2023/06/30 04:21:05;;;;;;;24.85;22.23;;;;;;;;;;5092512;28;20020;-52
2023/06/30 04:23:31;;;;;;;26.13;21.67;;;;;;;;;;5092628;28;20387;-53
2023/06/30 04:25:57;;;;;;;25.45;22.75;;;;;;;;;;5091920;28;20020;-48
2023/06/30 04:28:23;;;;;;;24.70;20.95;;;;;;;;;;5073451;28;20027;-56
2023/06/30 04:30:49;;;;;;;25.60;20.83;;;;;;;;;;5083620;28;20028;-55
2023/06/30 04:33:15;;;;;;;25.88;20.83;;;;;;;;;;5083990;28;20016;-54
2023/06/30 04:35:44;;;;;;;22.80;19.52;;;;;;;;;;5091945;28;20020;-53
2023/06/30 04:38:09;;;;;;;;;;;;;;;;;;5086138;28;20031;-56
2023/06/30 04:40:35;;;;;;;25.33;19.77;;;;;;;;;;5090013;28;20275;-56
2023/06/30 04:43:02;;;;;;;22.70;19.23;;;;;;;;;;5091885;28;20008;-49
2023/06/30 04:45:28;;;;;;;23.77;19.23;;;;;;;;;;5065312;28;20140;-51
2023/06/30 04:47:54;;;;;;;21.05;18.77;;;;;;;;;;5092384;28;20016;-54
2023/06/30 04:50:23;;;;;;;22.13;19.20;;;;;;;;;;5092245;28;20031;-50
2023/06/30 04:52:49;;;;;;;22.40;19.55;;;;;;;;;;5091826;28;20016;-53
2023/06/30 04:55:15;;;;;;;22.40;20.02;;;;;;;;;;5083061;28;20099;-52
2023/06/30 04:57:40;;;;;;;23.23;19.30;;;;;;;;;;5091770;28;20024;-51
2023/06/30 05:00:07;;;;;;;26.48;21.73;;;;;;;;;;5073575;28;20058;-49
2023/06/30 05:02:33;;;;;;;28.52;19.45;;;;;;;;;;5091967;28;20035;-53
2023/06/30 05:04:59;;;;;;;23.02;17.67;;;;;;;;;;5073845;28;20035;-55
2023/06/30 05:07:26;;;;;;;23.02;16.80;;;;;;;;;;5092074;28;20515;-54
2023/06/30 05:09:52;;;;;;;24.60;17.45;;;;;;;;;;5091835;28;20048;-55
2023/06/30 05:12:18;;;;;;;24.50;18.50;;;;;;;;;;5092113;28;20486;-51
2023/06/30 05:14:44;;;;;;;26.63;18.67;;;;;;;;;;5091649;28;20365;-53
2023/06/30 05:17:10;;;;;;;20.50;18.23;;;;;;;;;;5085217;28;20032;-52
2023/06/30 05:19:36;;;;;;;22.58;18.23;;;;;;;;;;5089527;28;20028;-53
2023/06/30 05:22:02;;;;;;;22.88;19.15;;;;;;;;;;5092057;28;20028;-54
2023/06/30 05:24:28;;;;;;;25.92;18.88;;;;;;;;;;5091651;28;20028;-54
2023/06/30 05:26:55;;;;;;;24.90;19.67;;;;;;;;;;5091656;28;20447;-53
2023/06/30 05:29:21;;;;;;;23.90;19.05;;;;;;;;;;5091507;28;20031;-52
2023/06/30 05:31:47;;;;;;;23.92;18.75;;;;;;;;;;5091131;28;20024;-52
2023/06/30 05:34:16;;;;;;;36.08;19.73;;;;;;;;;;5072859;28;20030;-56
2023/06/30 05:36:44;;;;;;;23.60;18.40;;;;;;;;;;5091223;28;20022;-52
2023/06/30 05:39:11;;;;;;;21.15;17.75;;;;;;;;;;5090930;28;20114;-53
2023/06/30 05:41:37;;;;;;;24.30;15.80;;;;;;;;;;5105152;23;20055;-59
2023/06/30 05:44:04;;;;;;;22.85;15.43;;;;;;;;;;5085400;28;20030;-62
2023/06/30 05:46:30;;;;;;;21.38;16.30;;;;;;;;;;5093940;28;20487;-61
2023/06/30 05:48:56;;;;;;;24.38;16.10;;;;;;;;;;5076168;28;20027;-61
2023/06/30 05:51:22;;;;;;;20.00;14.65;;;;;;;;;;5094206;28;20032;-60
2023/06/30 05:53:48;;;;;;;20.52;14.32;;;;;;;;;;5093004;28;20024;-61
2023/06/30 05:56:13;;;;;;;24.48;15.23;;;;;;;;;;5085943;28;20103;-59
2023/06/30 05:58:40;;;;;;;23.45;14.82;;;;;;;;;;5077276;28;20069;-61
2023/06/30 06:01:06;;;;;;;22.77;13.57;;;;;;;;;;5095130;28;20031;-61
2023/06/30 06:03:32;;;;;;;18.88;12.80;;;;;;;;;;5096064;28;20107;-60
2023/06/30 06:05:58;;;;;;;21.50;13.75;;;;;;;;;;5099486;28;20051;-61
2023/06/30 06:08:24;;;;;;;21.48;12.50;;;;;;;;;;5099994;28;20077;-61
2023/06/30 06:10:50;;;;;;;22.58;12.02;;;;;;;;;;5099204;28;20028;-60
2023/06/30 06:13:35;;;;;;;17.33;11.73;;;;;;;;;;5088312;28;20040;-62
2023/06/30 06:16:01;;;;;;;20.45;11.60;;;;;;;;;;5059545;28;20028;-60
2023/06/30 06:18:27;;;;;;;19.63;11.20;;;;;;;;;;5059637;28;20511;-61
2023/06/30 06:20:54;;;;;;;21.35;11.48;;;;;;;;;;5042293;28;20040;-60
2023/06/30 06:23:20;;;;;;;17.55;10.73;;;;;;;;;;5041968;28;20069;-62
2023/06/30 06:25:46;;;;;;;20.10;10.70;;;;;;;;;;5058322;28;20043;-63
2023/06/30 06:28:12;;;;;;;18.73;10.32;;;;;;;;;;5070952;28;20032;-62
2023/06/30 06:30:37;;;;;;;20.15;10.07;;;;;;;;;;5073464;28;20511;-62
2023/06/30 06:33:03;;;;;;;17.65;9.10;;;;;;;;;;5085186;28;20025;-62
2023/06/30 06:35:29;;;;;;;16.20;8.75;;;;;;;;;;5078977;28;20115;-62
2023/06/30 06:37:55;;;;;;;18.08;9.30;;;;;;;;;;5078214;28;20031;-61
2023/06/30 06:40:21;;;;;;;17.42;8.70;;;;;;;;;;5097651;28;20039;-60
2023/06/30 06:42:48;;;;;;;16.75;8.60;;;;;;;;;;5070821;28;20404;-62
2023/06/30 06:45:14;;;;;;;18.08;7.90;;;;;;;;;;5058968;28;20057;-60
2023/06/30 06:47:59;;;;;;;18.63;8.20;;;;;;;;;;5074423;28;20025;-60
2023/06/30 06:50:25;;;;;;;21.98;9.43;;;;;;;;;;5064728;28;20083;-61
2023/06/30 06:52:51;;;;;;;18.83;8.30;;;;;;;;;;5038438;28;20033;-61
2023/06/30 06:55:17;;;;;;;19.25;8.52;;;;;;;;;;5055765;28;20029;-60
2023/06/30 06:57:48;;;;;;;19.58;9.40;;;;;;;;;;5055618;28;20027;-61
2023/06/30 07:00:14;;;;;;;17.23;8.43;;;;;;;;;;5058679;28;20460;-61
2023/06/30 07:02:40;;;;;;;18.90;8.75;;;;;;;;;;5065219;28;20016;-62
2023/06/30 07:05:06;;;;;;;14.75;8.15;;;;;;;;;;5079352;28;20040;-63
2023/06/30 07:07:32;;;;;;;16.67;8.98;;;;;;;;;;5074399;28;20504;-50
2023/06/30 07:09:58;;;;;;;20.35;9.23;;;;;;;;;;5072949;28;20024;-51
2023/06/30 07:12:24;;;;;;;18.08;8.50;;;;;;;;;;5054791;28;20020;-51
2023/06/30 07:14:50;;;;;;;16.92;8.27;;;;;;;;;;5054390;28;20082;-49
2023/06/30 07:17:16;;;;;;;17.35;8.20;;;;;;;;;;5072549;28;20477;-49
2023/06/30 07:19:42;;;;;;;16.45;7.70;;;;;;;;;;5066157;28;20025;-51
2023/06/30 07:22:08;;;;;;;19.67;8.98;;;;;;;;;;5051730;28;20474;-50
2023/06/30 07:24:34;;;;;;;17.90;8.77;;;;;;;;;;5052152;28;20025;-52
2023/06/30 07:27:00;;;;;;;15.65;7.90;;;;;;;;;;5061256;28;20460;-51
2023/06/30 07:29:26;;;;;;;17.83;8.07;;;;;;;;;;5083423;28;20020;-53
2023/06/30 07:31:52;;;;;;;16.50;8.95;;;;;;;;;;5091708;28;20032;-50
2023/06/30 07:34:19;;;;;;;18.30;8.98;;;;;;;;;;5092329;28;20016;-49
2023/06/30 07:36:46;;;;;;;24.38;9.20;;;;;;;;;;5092283;28;20012;-50
2023/06/30 07:39:12;;;;;;;15.55;8.25;;;;;;;;;;5092852;28;20028;-48
2023/06/30 07:41:38;;;;;;;16.67;8.50;;;;;;;;;;5092277;28;20032;-50
2023/06/30 07:44:04;;;;;;;17.33;8.30;;;;;;;;;;5092672;28;20111;-51
2023/06/30 07:46:31;;;;;;;17.88;9.30;;;;;;;;;;5085880;28;20058;-51
2023/06/30 07:48:57;;;;;;;18.05;9.27;;;;;;;;;;5051937;28;20152;-50
2023/06/30 07:51:23;;;;;;;15.93;9.13;;;;;;;;;;5067168;28;20036;-51
2023/06/30 07:53:49;;;;;;;17.40;9.45;;;;;;;;;;5070305;28;20012;-47
2023/06/30 07:56:15;;;;;;;15.30;8.85;;;;;;;;;;5081859;28;20041;-50
2023/06/30 07:58:41;;;;;;;17.65;9.45;;;;;;;;;;5052399;28;20025;-51
2023/06/30 08:01:07;;;;;;;16.60;8.65;;;;;;;;;;5054560;28;20481;-51
2023/06/30 08:03:34;;;;;;;17.70;8.88;;;;;;;;;;5053744;28;20025;-53
2023/06/30 08:06:00;;;;;;;18.13;9.73;;;;;;;;;;5051857;28;20090;-48
2023/06/30 08:08:26;;;;;;;16.42;8.95;;;;;;;;;;5052339;28;20040;-49
2023/06/30 08:10:52;;;;;;;16.70;8.82;;;;;;;;;;5051379;28;20025;-52
2023/06/30 08:13:18;;;;;;;17.65;9.80;;;;;;;;;;5051551;28;20427;-52
2023/06/30 08:15:45;;;;;;;18.38;9.18;;;;;;;;;;5050400;28;20102;-46
2023/06/30 08:18:12;;;;;;;18.92;9.98;;;;;;;;;;5051700;28;20029;-49
2023/06/30 08:20:38;;;;;;;16.50;9.15;;;;;;;;;;5036404;28;20009;-50
2023/06/30 08:23:04;;;;;;;16.20;9.60;;;;;;;;;;5071302;28;20021;-56
2023/06/30 08:25:30;;;;;;;15.68;9.93;;;;;;;;;;5070801;28;20378;-59
2023/06/30 08:27:56;;;;;;;16.58;9.23;;;;;;;;;;5052166;28;20028;-59
2023/06/30 08:30:22;;;;;;;16.83;8.98;;;;;;;;;;5071022;28;20033;-59
2023/06/30 08:32:48;;;;;;;17.05;9.40;;;;;;;;;;5071102;28;20040;-59
2023/06/30 08:35:14;;;;;;;18.35;10.32;;;;;;;;;;5052674;28;20482;-56
2023/06/30 08:37:40;;;;;;;17.98;10.05;;;;;;;;;;5070626;28;20025;-58
2023/06/30 08:40:07;;;;;;;16.00;9.30;;;;;;;;;;5071117;28;20150;-60
2023/06/30 08:42:36;;;;;;;14.75;8.70;;;;;;;;;;5070893;28;20480;-55
2023/06/30 08:45:02;;;;;;;16.08;8.70;;;;;;;;;;5070802;28;20473;-59
2023/06/30 08:47:31;;;;;;;16.27;9.70;;;;;;;;;;5061649;28;20041;-58
2023/06/30 08:49:57;;;;;;;;;;;;;;;;;;5051612;28;20025;-59
2023/06/30 08:52:23;;;;;;;17.00;9.60;;;;;;;;;;5049404;28;20406;-61
2023/06/30 08:54:49;;;;;;;19.15;9.73;;;;;;;;;;5050522;28;20482;-59
2023/06/30 08:57:16;;;;;;;18.88;9.60;;;;;;;;;;5049793;28;20029;-61
2023/06/30 08:59:43;;;;;;;15.48;8.63;;;;;;;;;;5050533;28;20017;-58
2023/06/30 09:02:09;;;;;;;16.33;9.35;;;;;;;;;;5050607;28;20080;-58
2023/06/30 09:04:36;;;;;;;17.30;9.15;;;;;;;;;;5050387;28;20377;-56
2023/06/30 09:07:05;;;;;;;16.45;8.60;;;;;;;;;;5049523;28;20039;-59
2023/06/30 09:09:45;;;;;;;17.60;8.60;;;;;;;;;;5050828;28;20029;-60
2023/06/30 09:12:11;;;;;;;17.23;8.70;;;;;;;;;;5049341;28;20409;-57
2023/06/30 09:14:39;;;;;;;17.30;9.52;;;;;;;;;;5050428;28;20427;-61
2023/06/30 09:17:05;;;;;;;18.38;10.38;;;;;;;;;;5050932;28;20040;-59
2023/06/30 09:19:31;;;;;;;17.27;9.30;;;;;;;;;;5051038;28;20025;-58
2023/06/30 09:21:57;;;;;;;16.10;9.23;;;;;;;;;;5049398;28;20063;-58
2023/06/30 09:24:24;;;;;;;18.95;10.02;;;;;;;;;;5050442;28;20033;-59
2023/06/30 09:26:50;;;;;;;15.80;9.25;;;;;;;;;;5050604;28;20025;-59
2023/06/30 09:29:25;;;;;;;16.33;9.20;;;;;;;;;;5050632;28;20053;-59
2023/06/30 09:31:51;;;;;;;18.67;9.18;;;;;;;;;;5050738;28;20498;-57
2023/06/30 09:34:21;;;;;;;16.67;9.32;;;;;;;;;;5050190;28;20428;-56
2023/06/30 09:36:48;;;;;;;19.25;9.85;;;;;;;;;;5050555;28;20021;-59
2023/06/30 09:39:14;;;;;;;16.77;10.02;;;;;;;;;;5051042;28;20029;-58
2023/06/30 09:41:43;;;;;;;16.65;9.90;;;;;;;;;;5054126;28;20152;-59
2023/06/30 09:44:10;;;;;;;16.13;10.68;;;;;;;;;;5054069;28;20028;-59
2023/06/30 09:46:36;;;;;;;16.52;11.40;;;;;;;;;;5054073;28;20029;-59
2023/06/30 09:49:04;;;;;;;15.57;10.48;;;;;;;;;;5053926;28;20025;-60
2023/06/30 09:51:34;;;;;;;17.30;10.70;;;;;;;;;;5058824;28;20161;-58
2023/06/30 09:54:01;;;;;;;17.15;10.93;;;;;;;;;;5079445;28;20024;-57
2023/06/30 09:56:27;;;;;;;17.80;10.77;;;;;;;;;;5065730;28;20428;-57
2023/06/30 09:58:57;;;;;;;16.45;10.65;;;;;;;;;;5087118;28;20021;-59
2023/06/30 10:01:23;;;;;;;18.25;10.82;;;;;;;;;;5082836;28;20103;-61
2023/06/30 10:03:55;;;;;;;16.10;10.93;;;;;;;;;;5078928;28;20031;-56
2023/06/30 10:06:23;;;;;;;15.88;10.27;;;;;;;;;;5086389;28;20490;-57
2023/06/30 10:08:52;;;;;;;16.15;10.52;;;;;;;;;;5082348;28;20028;-56
2023/06/30 10:11:22;;;;;;;16.17;10.90;;;;;;;;;;5093891;28;20024;-56
2023/06/30 10:13:49;;;;;;;17.75;11.38;;;;;;;;;;5089274;28;20099;-57
2023/06/30 10:16:17;;;;;;;16.90;11.30;;;;;;;;;;5060534;28;20065;-56
2023/06/30 10:18:45;;;;;;;17.05;11.45;;;;;;;;;;5055614;28;20111;-59
2023/06/30 10:21:11;;;;;;;17.50;11.60;;;;;;;;;;5053622;28;20332;-60
2023/06/30 10:23:38;;;;;;;16.48;11.80;;;;;;;;;;5036020;28;20094;-56
2023/06/30 10:26:05;;;;;;;16.38;11.85;;;;;;;;;;5053339;28;20033;-57
2023/06/30 10:28:35;;;;;;;16.88;11.80;;;;;;;;;;5035328;28;20370;-57
2023/06/30 10:31:02;;;;;;;15.73;11.60;;;;;;;;;;5053274;28;20056;-58
2023/06/30 10:33:28;;;;;;;18.98;11.35;;;;;;;;;;5054020;28;20024;-58
2023/06/30 10:35:54;;;;;;;15.48;11.07;;;;;;;;;;5053478;28;20025;-58
2023/06/30 10:38:21;;;;;;;17.73;11.82;;;;;;;;;;5060584;28;20485;-57
2023/06/30 10:40:47;;;;;;;18.10;11.43;;;;;;;;;;5073484;28;20431;-58
2023/06/30 10:43:13;;;;;;;17.60;12.15;;;;;;;;;;5055469;28;20025;-58
2023/06/30 10:45:58;;;;;;;16.15;12.15;;;;;;;;;;5072883;28;20040;-58
2023/06/30 10:48:27;;;;;;;17.63;11.73;;;;;;;;;;5079017;28;20025;-58
2023/06/30 10:50:53;;;;;;;17.30;11.30;;;;;;;;;;5060252;28;20395;-57
2023/06/30 10:53:19;;;;;;;15.75;11.52;;;;;;;;;;5085483;28;20039;-59
2023/06/30 10:55:46;;;;;;;16.60;11.75;;;;;;;;;;5092774;28;20027;-59
2023/06/30 10:58:22;;;;;;;15.70;11.65;;;;;;;;;;5089358;28;20050;-59
2023/06/30 11:01:15;;;;;;;16.65;11.48;;;;;;;;;;5083903;28;20081;-56
2023/06/30 11:03:59;;;;;;;17.10;12.30;;;;;;;;;;5041117;28;20055;-59
2023/06/30 11:06:26;;;;;;;17.25;12.18;;;;;;;;;;5052786;28;20104;-59
2023/06/30 11:09:01;;;;;;;15.43;11.70;;;;;;;;;;5053565;28;20128;-58
2023/06/30 11:11:27;;;;;;;17.88;12.20;;;;;;;;;;5053251;28;21912;-57
2023/06/30 11:14:06;;;;;;;15.25;11.50;;;;;;;;;;5083309;28;20024;-61
2023/06/30 11:16:56;;;;;;;17.02;11.60;;;;;;;;;;5081934;28;20100;-58
2023/06/30 11:19:25;;;;;;;15.23;11.30;;;;;;;;;;5082297;28;20075;-58
2023/06/30 11:22:09;;;;;;;15.55;11.18;;;;;;;;;;5093531;28;20032;-60
2023/06/30 11:24:36;;;;;;;20.60;11.48;;;;;;;;;;5092607;28;20032;-61
2023/06/30 11:27:04;;;;;;;16.30;11.57;;;;;;;;;;5092583;28;20449;-58
2023/06/30 11:29:30;;;;;;;17.35;11.52;;;;;;;;;;5092510;28;20571;-57
2023/06/30 11:31:56;;;;;;;17.67;11.98;;;;;;;;;;5092206;28;20093;-60
2023/06/30 11:34:22;;;;;;;16.63;12.30;;;;;;;;;;5091811;28;20492;-59
2023/06/30 11:36:48;;;;;;;16.25;12.20;;;;;;;;;;5092760;28;20241;-59
2023/06/30 11:39:14;;;;;;;17.48;12.30;;;;;;;;;;5073862;28;20024;-57
2023/06/30 11:41:40;;;;;;;19.02;12.32;;;;;;;;;;5105525;22;20040;-51
2023/06/30 11:44:06;;;;;;;15.27;11.73;;;;;;;;;;5092069;28;20074;-53
2023/06/30 11:46:36;;;;;;;17.35;11.75;;;;;;;;;;5091242;28;20074;-52
2023/06/30 11:49:02;;;;;;;18.25;12.90;;;;;;;;;;5071503;28;20044;-52
2023/06/30 11:51:29;;;;;;;16.80;12.55;;;;;;;;;;5068085;28;20025;-53
2023/06/30 11:53:56;;;;;;;17.27;11.85;;;;;;;;;;5052348;28;20385;-52
2023/06/30 11:56:22;;;;;;;17.77;12.75;;;;;;;;;;5051555;28;20503;-52
2023/06/30 11:58:51;;;;;;;17.33;12.40;;;;;;;;;;5051316;28;20033;-55
2023/06/30 12:01:19;;;;;;;17.98;12.07;;;;;;;;;;5052031;28;20124;-57
2023/06/30 12:03:45;;;;;;;17.83;12.13;;;;;;;;;;5051913;28;20035;-54
2023/06/30 12:06:11;;;;;;;17.35;12.63;;;;;;;;;;5052241;28;20029;-55
2023/06/30 12:08:38;;;;;;;17.00;12.82;;;;;;;;;;5051388;28;20040;-56
2023/06/30 12:11:06;;;;;;;16.77;12.48;;;;;;;;;;5052074;28;20048;-55
2023/06/30 12:13:32;;;;;;;16.75;12.70;;;;;;;;;;5052322;28;20524;-53
2023/06/30 12:15:59;;;;;;;17.73;13.02;;;;;;;;;;5051866;28;20435;-51
2023/06/30 12:18:38;;;;;;;18.80;13.52;;;;;;;;;;5052034;28;20496;-52
2023/06/30 12:21:11;;;;;;;16.15;12.35;;;;;;;;;;5052122;28;20029;-53
2023/06/30 12:23:41;;;;;;;20.33;13.13;;;;;;;;;;5052181;28;20093;-55
2023/06/30 12:26:07;;;;;;;16.02;12.35;;;;;;;;;;5052156;28;20029;-53
2023/06/30 12:28:33;;;;;;;16.52;12.13;;;;;;;;;;5052686;28;20064;-54
2023/06/30 12:30:59;;;;;;;16.52;12.75;;;;;;;;;;5051683;28;20101;-54
2023/06/30 12:33:25;;;;;;;17.10;12.80;;;;;;;;;;5051836;28;20025;-56
2023/06/30 12:35:51;;;;;;;16.15;12.88;;;;;;;;;;5051702;28;20029;-59
2023/06/30 12:38:18;;;;;;;16.92;12.90;;;;;;;;;;5051862;28;20101;-55
2023/06/30 12:40:44;;;;;;;16.85;12.80;;;;;;;;;;5051599;28;20021;-54
2023/06/30 12:43:10;;;;;;;16.40;12.60;;;;;;;;;;5051066;28;20084;-55
2023/06/30 12:45:36;;;;;;;16.70;12.50;;;;;;;;;;5051075;28;20025;-53
2023/06/30 12:48:02;;;;;;;18.98;13.02;;;;;;;;;;5051405;28;20500;-55
2023/06/30 12:50:28;;;;;;;17.35;12.88;;;;;;;;;;5054463;28;20473;-56
2023/06/30 12:52:56;;;;;;;16.52;12.57;;;;;;;;;;5058290;28;20021;-57
2023/06/30 12:55:22;;;;;;;18.90;13.10;;;;;;;;;;5057042;28;20189;-55
2023/06/30 12:57:48;;;;;;;15.80;12.57;;;;;;;;;;5067368;28;20112;-52
2023/06/30 13:00:15;;;;;;;16.33;12.05;;;;;;;;;;5068462;28;20051;-57
2023/06/30 13:02:41;;;;;;;16.13;12.45;;;;;;;;;;5068588;28;20039;-53
2023/06/30 13:05:08;;;;;;;18.40;12.90;;;;;;;;;;5065417;28;20032;-50
2023/06/30 13:07:34;;;;;;;16.75;12.75;;;;;;;;;;5071608;28;20041;-52
2023/06/30 13:10:01;;;;;;;16.38;12.82;;;;;;;;;;5071187;28;20087;-53
2023/06/30 13:12:29;;;;;;;16.00;12.57;;;;;;;;;;5053155;28;20032;-54
2023/06/30 13:14:55;;;;;;;16.45;12.65;;;;;;;;;;5058873;28;20054;-52
2023/06/30 13:17:21;;;;;;;19.73;13.32;;;;;;;;;;5078019;28;20099;-54
2023/06/30 13:19:47;;;;;;;16.63;12.35;;;;;;;;;;5077653;28;20039;-55
2023/06/30 13:22:13;;;;;;;18.00;12.82;;;;;;;;;;5077710;28;20099;-56
2023/06/30 13:24:40;;;;;;;16.42;12.93;;;;;;;;;;5077624;28;20032;-50
2023/06/30 13:27:07;;;;;;;17.10;12.63;;;;;;;;;;5077834;28;20365;-56
2023/06/30 13:29:34;;;;;;;17.33;12.95;;;;;;;;;;5077545;28;20031;-55
2023/06/30 13:32:00;;;;;;;16.13;13.05;;;;;;;;;;5077822;28;20110;-54
2023/06/30 13:34:28;;;;;;;16.95;12.95;;;;;;;;;;5077514;28;20059;-52
2023/06/30 13:36:54;;;;;;;16.95;13.18;;;;;;;;;;5077707;28;20415;-57
2023/06/30 13:39:20;;;;;;;16.83;12.10;;;;;;;;;;5077660;28;20032;-54
2023/06/30 13:41:46;;;;;;;16.15;12.25;;;;;;;;;;5077293;28;20123;-54
2023/06/30 13:44:12;;;;;;;17.38;12.55;;;;;;;;;;5073654;28;20042;-53
2023/06/30 13:46:38;;;;;;;17.27;12.77;;;;;;;;;;5073346;28;20416;-53
2023/06/30 13:49:04;;;;;;;17.02;12.93;;;;;;;;;;5059579;28;20130;-50
2023/06/30 13:51:30;;;;;;;17.55;12.88;;;;;;;;;;5077461;28;20342;-54
2023/06/30 13:53:56;;;;;;;17.45;12.80;;;;;;;;;;5077480;28;20112;-52
2023/06/30 13:56:23;;;;;;;16.38;12.70;;;;;;;;;;5059380;28;20131;-51
2023/06/30 13:58:49;;;;;;;16.85;12.80;;;;;;;;;;5077759;28;20036;-50
2023/06/30 14:01:15;;;;;;;15.95;12.50;;;;;;;;;;5077495;28;20033;-55
2023/06/30 14:03:42;;;;;;;17.17;12.80;;;;;;;;;;5059879;28;20024;-51
2023/06/30 14:06:08;;;;;;;16.17;12.73;;;;;;;;;;5077135;28;20039;-53
2023/06/30 14:08:34;;;;;;;19.00;12.65;;;;;;;;;;5077523;28;20032;-58
2023/06/30 14:11:00;;;;;;;17.13;13.15;;;;;;;;;;5077116;28;20028;-53
2023/06/30 14:13:27;;;;;;;17.73;13.65;;;;;;;;;;5077000;28;20024;-56
2023/06/30 14:15:53;;;;;;;17.17;13.50;;;;;;;;;;5077096;28;20025;-54
2023/06/30 14:18:19;;;;;;;19.70;13.60;;;;;;;;;;5058998;28;20112;-53
2023/06/30 14:20:47;;;;;;;18.90;13.43;;;;;;;;;;5077096;28;20064;-54